createdAt,value
2022-10-19T00:01:25.392Z,65.90
2022-10-19T00:03:59.081Z,66.00
2022-10-19T00:06:28.188Z,65.90
2022-10-19T00:09:02.285Z,65.90
2022-10-19T00:11:30.202Z,65.90
2022-10-19T00:13:58.511Z,65.90
2022-10-19T00:16:29.208Z,65.90
2022-10-19T00:19:01.673Z,65.90
2022-10-19T00:21:31.555Z,66.00
2022-10-19T00:24:01.526Z,66.00
2022-10-19T00:26:30.904Z,66.00
2022-10-19T00:28:58.333Z,66.10
2022-10-19T00:31:28.067Z,66.00
2022-10-19T00:34:00.016Z,66.10
2022-10-19T00:36:37.324Z,66.10
2022-10-19T00:39:07.089Z,66.10
2022-10-19T00:41:37.090Z,66.00
2022-10-19T00:44:15.882Z,66.10
2022-10-19T00:46:49.989Z,66.10
2022-10-19T00:49:23.721Z,66.10
2022-10-19T00:52:07.487Z,66.20
2022-10-19T00:54:40.634Z,66.20
2022-10-19T00:57:11.192Z,66.30
2022-10-19T00:59:42.761Z,66.30
2022-10-19T01:02:10.154Z,66.30
2022-10-19T01:04:43.029Z,67.00
2022-10-19T01:07:12.898Z,66.20
2022-10-19T01:09:42.774Z,66.30
2022-10-19T01:12:22.704Z,66.30
2022-10-19T01:15:36.933Z,66.30
2022-10-19T01:18:16.562Z,66.30
2022-10-19T01:21:43.973Z,66.30
2022-10-19T01:24:57.850Z,66.40
2022-10-19T01:27:53.665Z,66.50
2022-10-19T01:30:40.147Z,66.40
2022-10-19T01:33:28.094Z,66.50
2022-10-19T01:36:38.975Z,66.70
2022-10-19T01:39:33.291Z,66.90
2022-10-19T01:42:16.572Z,66.80
2022-10-19T01:44:54.470Z,66.90
2022-10-19T01:47:31.723Z,67.70
2022-10-19T01:50:22.786Z,67.00
2022-10-19T01:52:54.061Z,67.20
2022-10-19T01:55:27.749Z,67.10
2022-10-19T01:58:02.732Z,67.10
2022-10-19T02:00:32.537Z,67.20
2022-10-19T02:03:00.940Z,67.20
2022-10-19T02:05:35.002Z,67.20
2022-10-19T02:08:11.543Z,67.20
2022-10-19T02:10:40.219Z,67.20
2022-10-19T02:13:12.228Z,67.20
2022-10-19T02:15:48.318Z,67.20
2022-10-19T02:18:21.297Z,67.20
2022-10-19T02:20:50.770Z,67.20
2022-10-19T02:23:24.536Z,67.20
2022-10-19T02:25:54.549Z,68.00
2022-10-19T02:30:52.810Z,67.10
2022-10-19T02:33:19.686Z,67.10
2022-10-19T02:35:51.634Z,67.10
2022-10-19T02:38:22.237Z,67.20
2022-10-19T02:41:24.508Z,67.30
2022-10-19T02:44:02.594Z,67.30
2022-10-19T02:46:37.907Z,67.30
2022-10-19T02:49:07.182Z,67.30
2022-10-19T02:51:57.781Z,67.30
2022-10-19T02:54:32.479Z,67.30
2022-10-19T02:56:59.394Z,67.40
2022-10-19T02:59:26.527Z,67.20
2022-10-19T03:01:58.342Z,67.30
2022-10-19T03:04:27.714Z,67.30
2022-10-19T03:06:57.048Z,67.40
2022-10-19T03:09:23.886Z,67.40
2022-10-19T03:11:50.750Z,67.40
2022-10-19T03:14:17.784Z,67.40
2022-10-19T03:16:47.300Z,67.40
2022-10-19T03:19:16.839Z,67.60
2022-10-19T03:21:43.707Z,67.60
2022-10-19T03:24:10.619Z,67.70
2022-10-19T03:26:37.447Z,67.80
2022-10-19T03:29:07.037Z,67.80
2022-10-19T03:31:33.914Z,67.90
2022-10-19T03:34:02.026Z,68.00
2022-10-19T03:36:35.620Z,68.00
2022-10-19T03:39:07.594Z,68.00
2022-10-19T03:41:36.574Z,68.10
2022-10-19T03:44:06.779Z,68.10
2022-10-19T03:46:34.217Z,68.30
2022-10-19T03:49:01.502Z,68.10
2022-10-19T03:51:32.983Z,68.00
2022-10-19T03:54:07.735Z,67.90
2022-10-19T03:56:37.098Z,68.10
2022-10-19T03:59:10.496Z,67.80
2022-10-19T04:01:44.459Z,67.80
2022-10-19T04:04:19.944Z,67.80
2022-10-19T04:06:53.222Z,67.90
2022-10-19T04:09:22.236Z,68.00
2022-10-19T04:11:49.938Z,68.10
2022-10-19T04:14:32.122Z,68.10
2022-10-19T04:17:04.330Z,68.20
2022-10-19T04:19:31.813Z,68.30
2022-10-19T04:22:08.064Z,68.40
2022-10-19T04:24:34.938Z,68.70
2022-10-19T04:27:02.017Z,68.60
2022-10-19T04:29:30.203Z,68.70
2022-10-19T04:32:00.466Z,68.80
2022-10-19T04:34:27.462Z,68.80
2022-10-19T04:36:54.604Z,69.00
2022-10-19T04:39:21.596Z,69.00
2022-10-19T04:41:57.006Z,69.80
2022-10-19T04:44:27.217Z,69.20
2022-10-19T04:47:37.787Z,69.00
2022-10-19T04:50:05.302Z,69.30
2022-10-19T04:52:41.040Z,69.10
2022-10-19T04:55:08.528Z,69.20
2022-10-19T04:57:59.891Z,69.00
2022-10-19T05:00:28.951Z,69.30
2022-10-19T05:03:03.533Z,69.10
2022-10-19T05:05:34.469Z,69.30
2022-10-19T05:08:04.151Z,69.20
2022-10-19T05:10:31.359Z,69.20
2022-10-19T05:13:02.661Z,69.30
2022-10-19T05:15:30.553Z,69.30
2022-10-19T05:18:00.583Z,69.30
2022-10-19T05:20:35.314Z,69.40
2022-10-19T05:23:13.637Z,69.40
2022-10-19T05:25:40.488Z,69.50
2022-10-19T05:28:14.113Z,69.40
2022-10-19T05:30:53.104Z,69.50
2022-10-19T05:33:25.033Z,69.60
2022-10-19T05:35:54.385Z,69.40
2022-10-19T05:38:23.856Z,69.40
2022-10-19T05:40:53.612Z,69.50
2022-10-19T05:43:20.776Z,69.50
2022-10-19T05:45:47.572Z,69.60
2022-10-19T05:48:14.469Z,69.60
2022-10-19T05:50:41.362Z,69.50
2022-10-19T05:53:08.285Z,69.50
2022-10-19T05:55:37.783Z,69.50
2022-10-19T05:58:04.851Z,69.50
2022-10-19T06:00:31.712Z,69.60
2022-10-19T06:02:59.259Z,69.60
2022-10-19T06:05:31.675Z,69.60
2022-10-19T06:07:58.532Z,69.60
2022-10-19T06:10:25.621Z,70.30
2022-10-19T06:12:55.031Z,69.50
2022-10-19T06:15:21.850Z,69.50
2022-10-19T06:17:48.711Z,69.50
2022-10-19T06:20:15.596Z,69.50
2022-10-19T06:22:42.779Z,69.50
2022-10-19T06:25:09.937Z,69.50
2022-10-19T06:27:37.358Z,69.40
2022-10-19T06:30:05.440Z,69.40
2022-10-19T06:32:36.993Z,69.50
2022-10-19T06:35:03.944Z,69.40
2022-10-19T06:37:30.909Z,69.60
2022-10-19T06:39:57.940Z,69.40
2022-10-19T06:42:24.775Z,69.40
2022-10-19T06:44:53.838Z,69.40
2022-10-19T06:47:22.840Z,69.40
2022-10-19T06:49:49.667Z,69.50
2022-10-19T06:52:16.511Z,69.50
2022-10-19T06:54:45.712Z,69.60
2022-10-19T06:57:12.596Z,69.60
2022-10-19T06:59:39.512Z,69.60
2022-10-19T07:02:06.674Z,69.60
2022-10-19T07:04:33.578Z,69.60
2022-10-19T07:07:00.486Z,69.60
2022-10-19T07:09:29.950Z,69.60
2022-10-19T07:11:56.897Z,69.60
2022-10-19T07:14:28.443Z,69.50
2022-10-19T07:16:55.665Z,69.60
2022-10-19T07:19:26.446Z,69.70
2022-10-19T07:21:55.958Z,69.60
2022-10-19T07:24:23.370Z,69.50
2022-10-19T07:26:50.215Z,69.50
2022-10-19T07:29:17.366Z,69.50
2022-10-19T07:31:44.295Z,69.50
2022-10-19T07:34:17.744Z,69.50
2022-10-19T07:36:48.037Z,69.60
2022-10-19T07:39:19.542Z,69.50
2022-10-19T07:41:49.100Z,69.50
2022-10-19T07:44:16.238Z,69.70
2022-10-19T07:46:44.009Z,69.50
2022-10-19T07:49:16.367Z,69.40
2022-10-19T07:51:43.372Z,69.50
2022-10-19T07:54:13.097Z,69.40
2022-10-19T07:56:42.491Z,69.40
2022-10-19T07:59:10.319Z,69.40
2022-10-19T08:01:44.877Z,69.30
2022-10-19T08:04:56.022Z,69.40
2022-10-19T08:07:03.150Z,69.40
2022-10-19T08:09:53.193Z,69.30
2022-10-19T08:12:19.344Z,69.30
2022-10-19T08:14:47.970Z,69.40
2022-10-19T08:17:17.465Z,69.30
2022-10-19T08:19:47.282Z,69.50
2022-10-19T08:22:16.702Z,69.30
2022-10-19T08:24:43.768Z,69.30
2022-10-19T08:27:15.077Z,69.20
2022-10-19T08:29:41.964Z,69.30
2022-10-19T08:32:08.943Z,69.30
2022-10-19T08:34:42.566Z,69.30
2022-10-19T08:37:19.916Z,69.30
2022-10-19T08:39:58.678Z,69.30
2022-10-19T08:42:47.779Z,69.30
2022-10-19T08:48:23.170Z,69.30
2022-10-19T08:50:53.279Z,69.20
2022-10-19T08:53:54.941Z,69.30
2022-10-19T08:56:51.502Z,69.20
2022-10-19T08:59:35.197Z,69.10
2022-10-19T09:02:20.434Z,69.10
2022-10-19T09:05:06.110Z,69.10
2022-10-19T09:07:45.485Z,69.10
2022-10-19T09:10:17.923Z,69.10
2022-10-19T09:12:55.098Z,69.00
2022-10-19T09:15:41.825Z,69.00
2022-10-19T09:18:30.691Z,69.10
2022-10-19T09:21:16.787Z,69.00
2022-10-19T09:24:09.216Z,69.00
2022-10-19T09:26:53.353Z,69.00
2022-10-19T09:30:05.538Z,68.90
2022-10-19T09:32:37.458Z,68.90
2022-10-19T09:35:23.390Z,68.70
2022-10-19T09:37:54.121Z,68.60
2022-10-19T09:40:29.069Z,68.50
2022-10-19T09:43:02.695Z,68.50
2022-10-19T09:46:18.581Z,68.50
2022-10-19T09:48:52.364Z,68.60
2022-10-19T09:51:21.186Z,68.50
2022-10-19T09:53:53.577Z,68.50
2022-10-19T09:56:24.338Z,68.50
2022-10-19T09:59:00.097Z,68.60
2022-10-19T10:01:41.556Z,68.50
2022-10-19T10:04:17.221Z,68.30
2022-10-19T10:06:48.119Z,68.30
2022-10-19T10:09:24.024Z,68.10
2022-10-19T10:14:40.254Z,68.10
2022-10-19T10:17:12.450Z,68.00
2022-10-19T10:19:58.122Z,67.90
2022-10-19T10:23:03.325Z,67.70
2022-10-19T10:25:34.556Z,67.40
2022-10-19T10:28:18.598Z,67.40
2022-10-19T10:30:51.058Z,67.10
2022-10-19T10:33:40.337Z,66.80
2022-10-19T10:36:12.643Z,66.70
2022-10-19T10:38:56.741Z,66.70
2022-10-19T10:41:40.517Z,65.90
2022-10-19T10:44:29.794Z,65.90
2022-10-19T10:47:02.855Z,65.80
2022-10-19T10:49:36.945Z,65.40
2022-10-19T10:52:16.456Z,65.10
2022-10-19T10:55:12.397Z,64.90
2022-10-19T10:57:45.760Z,64.40
2022-10-19T11:00:26.621Z,64.50
2022-10-19T11:03:29.129Z,64.40
2022-10-19T11:06:05.584Z,64.50
2022-10-19T11:08:52.445Z,64.50
2022-10-19T11:11:32.397Z,64.60
2022-10-19T11:14:22.791Z,64.20
2022-10-19T11:16:54.090Z,64.30
2022-10-19T11:19:43.060Z,64.20
2022-10-19T11:22:34.999Z,64.50
2022-10-19T11:25:19.370Z,64.60
2022-10-19T11:28:27.444Z,64.50
2022-10-19T11:30:59.955Z,64.20
2022-10-19T11:33:50.801Z,64.20
2022-10-19T11:36:47.069Z,63.80
2022-10-19T11:39:28.791Z,63.50
2022-10-19T11:42:16.220Z,63.70
2022-10-19T11:45:18.458Z,63.00
2022-10-19T11:48:12.995Z,62.80
2022-10-19T11:51:16.816Z,62.70
2022-10-19T11:54:18.002Z,62.60
2022-10-19T11:57:11.159Z,62.70
2022-10-19T12:00:13.726Z,62.90
2022-10-19T12:03:18.844Z,63.20
2022-10-19T12:06:09.119Z,63.00
2022-10-19T12:09:13.562Z,63.20
2022-10-19T12:12:30.981Z,62.60
2022-10-19T12:15:31.582Z,62.40
2022-10-19T12:18:14.491Z,62.20
2022-10-19T12:20:57.255Z,62.40
2022-10-19T12:23:48.244Z,62.30
2022-10-19T12:26:21.344Z,62.10
2022-10-19T12:28:55.684Z,62.20
2022-10-19T12:31:27.510Z,62.00
2022-10-19T12:34:38.020Z,62.10
2022-10-19T12:37:26.227Z,62.30
2022-10-19T12:40:40.201Z,61.10
2022-10-19T12:43:10.105Z,61.40
2022-10-19T12:45:41.867Z,61.40
2022-10-19T12:48:08.694Z,61.10
2022-10-19T12:50:52.781Z,61.00
2022-10-19T12:53:38.837Z,61.00
2022-10-19T12:56:14.697Z,60.80
2022-10-19T12:58:46.769Z,60.90
2022-10-19T13:01:43.942Z,61.00
2022-10-19T13:04:20.289Z,60.60
2022-10-19T13:06:59.182Z,61.00
2022-10-19T13:09:44.825Z,60.70
2022-10-19T13:12:17.821Z,60.60
2022-10-19T13:15:07.004Z,60.80
2022-10-19T13:17:46.516Z,60.60
2022-10-19T13:20:16.484Z,60.70
2022-10-19T13:23:01.367Z,60.60
2022-10-19T13:25:33.468Z,60.30
2022-10-19T13:28:17.911Z,60.30
2022-10-19T13:30:44.681Z,60.10
2022-10-19T13:33:29.195Z,60.30
2022-10-19T13:36:06.498Z,60.10
2022-10-19T13:39:07.774Z,60.10
2022-10-19T13:41:34.593Z,60.10
2022-10-19T13:44:22.172Z,60.40
2022-10-19T13:47:09.333Z,60.40
2022-10-19T13:49:56.566Z,60.40
2022-10-19T13:52:26.135Z,60.40
2022-10-19T13:55:11.625Z,60.50
2022-10-19T13:58:07.117Z,60.50
2022-10-19T14:01:22.090Z,60.30
2022-10-19T14:04:21.383Z,60.50
2022-10-19T14:06:59.123Z,60.60
2022-10-19T14:09:46.235Z,60.70
2022-10-19T14:12:38.912Z,60.90
2022-10-19T14:15:18.783Z,61.00
2022-10-19T14:17:48.348Z,61.00
2022-10-19T14:20:31.241Z,61.10
2022-10-19T14:23:18.131Z,61.00
2022-10-19T14:26:10.594Z,61.10
2022-10-19T14:28:38.747Z,61.10
2022-10-19T14:31:20.640Z,61.10
2022-10-19T14:33:54.241Z,61.10
2022-10-19T14:36:30.031Z,61.90
2022-10-19T14:38:57.667Z,61.40
2022-10-19T14:41:27.589Z,61.50
2022-10-19T14:43:56.636Z,61.50
2022-10-19T14:46:33.183Z,61.50
2022-10-19T14:49:05.927Z,61.50
2022-10-19T14:52:01.274Z,61.50
2022-10-19T14:54:37.233Z,61.60
2022-10-19T14:57:16.902Z,61.90
2022-10-19T14:59:46.506Z,61.80
2022-10-19T15:02:27.373Z,61.90
2022-10-19T15:04:57.501Z,61.90
2022-10-19T15:07:41.107Z,61.90
2022-10-19T15:10:35.596Z,61.90
2022-10-19T15:13:06.868Z,61.90
2022-10-19T15:15:38.969Z,62.00
2022-10-19T15:18:25.157Z,62.10
2022-10-19T15:21:18.012Z,62.20
2022-10-19T15:23:49.299Z,62.40
2022-10-19T15:26:25.289Z,62.30
2022-10-19T15:28:54.453Z,62.40
2022-10-19T15:31:26.382Z,62.40
2022-10-19T15:33:59.560Z,62.40
2022-10-19T15:36:28.550Z,62.30
2022-10-19T15:39:06.250Z,62.30
2022-10-19T15:41:47.597Z,62.30
2022-10-19T15:44:44.543Z,62.30
2022-10-19T15:47:19.125Z,62.30
2022-10-19T15:49:51.639Z,62.20
2022-10-19T15:52:22.355Z,62.30
2022-10-19T15:54:51.192Z,62.40
2022-10-19T15:57:35.462Z,62.40
2022-10-19T16:00:16.232Z,62.50
2022-10-19T16:02:43.366Z,62.60
2022-10-19T16:05:10.917Z,62.60
2022-10-19T16:07:42.076Z,62.60
2022-10-19T16:10:17.633Z,62.60
2022-10-19T16:12:44.601Z,62.50
2022-10-19T16:15:23.315Z,62.50
2022-10-19T16:17:58.777Z,62.50
2022-10-19T16:20:28.785Z,62.60
2022-10-19T16:22:55.798Z,62.60
2022-10-19T16:25:23.207Z,62.60
2022-10-19T16:27:50.186Z,62.50
2022-10-19T16:30:19.333Z,62.50
2022-10-19T16:32:49.218Z,62.60
2022-10-19T16:35:16.914Z,62.60
2022-10-19T16:37:43.880Z,62.70
2022-10-19T16:40:11.200Z,62.70
2022-10-19T16:42:40.471Z,62.70
2022-10-19T16:45:09.641Z,62.70
2022-10-19T16:47:36.582Z,62.70
2022-10-19T16:50:06.036Z,62.80
2022-10-19T16:52:33.598Z,62.80
2022-10-19T16:55:01.090Z,62.80
2022-10-19T16:57:30.545Z,62.90
2022-10-19T16:59:59.673Z,62.90
2022-10-19T17:02:29.901Z,63.00
2022-10-19T17:04:56.812Z,63.00
2022-10-19T17:07:24.410Z,63.00
2022-10-19T17:09:55.066Z,63.00
2022-10-19T17:12:24.325Z,63.00
2022-10-19T17:14:51.377Z,62.90
2022-10-19T17:17:18.409Z,63.00
2022-10-19T17:19:48.719Z,63.00
2022-10-19T17:22:15.654Z,63.00
2022-10-19T17:24:42.557Z,63.00
2022-10-19T17:27:13.974Z,63.00
2022-10-19T17:29:40.805Z,63.00
2022-10-19T17:32:10.048Z,63.30
2022-10-19T17:34:37.113Z,63.10
2022-10-19T17:37:06.567Z,63.00
2022-10-19T17:39:35.608Z,63.00
2022-10-19T17:42:04.601Z,63.10
2022-10-19T17:44:31.914Z,63.20
2022-10-19T17:47:00.701Z,63.20
2022-10-19T17:49:30.727Z,63.20
2022-10-19T17:51:58.216Z,63.30
2022-10-19T17:54:25.498Z,63.30
2022-10-19T17:56:52.427Z,63.30
2022-10-19T17:59:30.156Z,63.30
2022-10-19T18:02:03.745Z,63.30
2022-10-19T18:04:30.666Z,63.30
2022-10-19T18:06:57.848Z,63.20
2022-10-19T18:09:24.676Z,63.30
2022-10-19T18:11:51.733Z,63.30
2022-10-19T18:14:18.665Z,63.30
2022-10-19T18:16:52.055Z,63.40
2022-10-19T18:19:19.188Z,63.40
2022-10-19T18:21:47.776Z,63.30
2022-10-19T18:24:19.838Z,63.20
2022-10-19T18:26:50.847Z,63.20
2022-10-19T18:29:27.543Z,63.30
2022-10-19T18:31:59.303Z,63.30
2022-10-19T18:34:28.919Z,63.30
2022-10-19T18:36:55.915Z,63.30
2022-10-19T18:39:28.277Z,63.30
2022-10-19T18:41:55.327Z,63.30
2022-10-19T18:44:26.417Z,63.30
2022-10-19T18:46:56.546Z,63.30
2022-10-19T18:49:24.196Z,63.20
2022-10-19T18:52:00.665Z,63.20
2022-10-19T18:54:28.087Z,63.20
2022-10-19T18:56:55.839Z,63.30
2022-10-19T18:59:24.970Z,63.30
2022-10-19T19:01:52.171Z,63.20
2022-10-19T19:04:21.557Z,63.30
2022-10-19T19:06:53.266Z,63.40
2022-10-19T19:09:21.160Z,63.40
2022-10-19T19:11:48.337Z,63.30
2022-10-19T19:14:20.889Z,63.30
2022-10-19T19:16:47.925Z,63.30
2022-10-19T19:19:17.315Z,63.30
2022-10-19T19:21:45.522Z,63.30
2022-10-19T19:24:16.159Z,63.30
2022-10-19T19:26:50.127Z,63.30
2022-10-19T19:29:21.213Z,63.30
2022-10-19T19:31:51.360Z,63.40
2022-10-19T19:34:21.920Z,63.50
2022-10-19T19:36:49.210Z,63.50
2022-10-19T19:39:19.924Z,63.40
2022-10-19T19:41:48.607Z,63.40
2022-10-19T19:44:18.264Z,63.40
2022-10-19T19:46:45.232Z,63.50
2022-10-19T19:49:12.480Z,63.40
2022-10-19T19:51:39.503Z,63.40
2022-10-19T19:54:11.610Z,63.30
2022-10-19T19:56:42.792Z,63.30
2022-10-19T19:59:12.639Z,63.40
2022-10-19T20:01:42.854Z,63.40
2022-10-19T20:04:12.597Z,63.40
2022-10-19T20:06:40.723Z,63.50
2022-10-19T20:09:08.681Z,63.40
2022-10-19T20:11:42.063Z,63.50
2022-10-19T20:14:12.410Z,63.50
2022-10-19T20:16:41.556Z,63.60
2022-10-19T20:19:11.718Z,63.60
2022-10-19T20:21:39.740Z,63.60
2022-10-19T20:24:07.244Z,63.60
2022-10-19T20:26:36.653Z,64.40
2022-10-19T20:29:04.570Z,63.70
2022-10-19T20:31:39.356Z,63.70
2022-10-19T20:34:14.047Z,63.70
2022-10-19T20:36:41.404Z,63.70
2022-10-19T20:39:08.918Z,63.80
2022-10-19T20:41:36.097Z,63.80
2022-10-19T20:44:03.095Z,63.70
2022-10-19T20:46:31.390Z,63.70
2022-10-19T20:49:01.028Z,63.80
2022-10-19T20:51:32.533Z,63.80
2022-10-19T20:54:02.789Z,63.90
2022-10-19T20:56:38.090Z,63.90
2022-10-19T20:59:16.572Z,64.70
2022-10-19T21:01:46.138Z,64.00
2022-10-19T21:04:18.379Z,64.00
2022-10-19T21:06:48.479Z,64.00
2022-10-19T21:09:21.161Z,64.00
2022-10-19T21:11:52.938Z,64.00
2022-10-19T21:14:28.570Z,64.00
2022-10-19T21:17:02.094Z,64.00
2022-10-19T21:19:38.616Z,64.10
2022-10-19T21:22:08.510Z,64.20
2022-10-19T21:24:36.538Z,64.20
2022-10-19T21:27:07.619Z,64.20
2022-10-19T21:29:35.900Z,64.10
2022-10-19T21:32:03.032Z,64.10
2022-10-19T21:34:32.671Z,64.20
2022-10-19T21:36:59.712Z,64.10
2022-10-19T21:39:26.756Z,64.00
2022-10-19T21:41:53.658Z,64.00
2022-10-19T21:44:23.003Z,64.10
2022-10-19T21:46:50.325Z,64.10
2022-10-19T21:49:17.452Z,64.30
2022-10-19T21:51:56.376Z,64.30
2022-10-19T21:54:25.300Z,64.30
2022-10-19T21:56:53.166Z,64.30
2022-10-19T21:59:20.117Z,64.30
2022-10-19T22:01:50.200Z,64.40
2022-10-19T22:04:20.694Z,64.60
2022-10-19T22:06:47.831Z,64.40
2022-10-19T22:09:19.961Z,64.50
2022-10-19T22:11:52.884Z,64.40
2022-10-19T22:14:23.140Z,64.50
2022-10-19T22:16:50.034Z,64.50
2022-10-19T22:19:22.277Z,64.50
2022-10-19T22:21:49.139Z,64.60
2022-10-19T22:24:16.293Z,64.50
2022-10-19T22:26:47.489Z,64.50
2022-10-19T22:29:14.520Z,64.50
2022-10-19T22:31:41.797Z,64.60
2022-10-19T22:34:14.848Z,64.60
2022-10-19T22:36:44.307Z,64.60
2022-10-19T22:39:14.159Z,64.60
2022-10-19T22:41:41.051Z,64.60
2022-10-19T22:44:08.421Z,64.60
2022-10-19T22:46:35.289Z,64.70
2022-10-19T22:51:40.783Z,64.70
2022-10-19T22:54:07.661Z,64.80
2022-10-19T22:56:34.842Z,64.80
2022-10-19T22:59:06.202Z,64.70
2022-10-19T23:01:36.075Z,64.80
2022-10-19T23:04:05.550Z,64.80
2022-10-19T23:06:39.546Z,64.80
2022-10-19T23:09:06.678Z,64.80
2022-10-19T23:11:36.592Z,64.80
2022-10-19T23:14:03.543Z,64.80
2022-10-19T23:16:35.488Z,64.90
2022-10-19T23:19:02.308Z,64.90
2022-10-19T23:21:29.188Z,65.70
2022-10-19T23:23:56.136Z,65.00
2022-10-19T23:26:27.569Z,65.00
2022-10-19T23:28:54.402Z,65.10
2022-10-19T23:31:26.795Z,65.10
2022-10-19T23:33:54.417Z,65.10
2022-10-19T23:36:27.689Z,65.00
2022-10-19T23:38:56.260Z,65.90
2022-10-19T23:41:23.575Z,65.10
2022-10-19T23:43:55.283Z,65.10
2022-10-19T23:46:22.133Z,65.20
2022-10-19T23:48:48.973Z,65.20
2022-10-19T23:51:21.249Z,65.20
2022-10-19T23:53:50.032Z,65.20
2022-10-19T23:56:26.916Z,65.10
2022-10-19T23:58:54.711Z,65.10
